Etusivu
METAR-TAF:

METAR-TAF

Lentoasemat :

Kiruna, Ruotsi

Kiirunan lentoasema

Leveyspiiri: 67-49N, Pituuspiiri: 020-20E, korkeus merenpinnasta: 452 m

Tämänhetkinen sää

Tämä raportti tehtiin 20 minuuttia sitten, kello 20.20 UTC
Tuuli 2 kn pohjoisesta
Lämpötila 14°C
Kosteus 67%
Ilmanpaine 1023 hPa
Näkyvyys 10 km tai enemmän

METAR: ESNQ 232020Z AUTO 36002KT 9999 NCD 14/08 Q1023

Aika: 22:40 (20:40 UTC)

Sääennuste

Tämä raportti tehtiin 6 tuntia ja 10 minuuttia sitten, kello 14.30 UTC
Ennuste voimassa 23. päivästä klo 15 UTC - 23. päivään klo 19 UTC
Tuuli 7 kn idästä/koillisesta
Näkyvyys 10 km tai enemmän
ei pilviä alle 1500 m:ssä eikä cumulonimbus-pilviä

TAF: ESNQ 231430Z 2315/2319 06007KT CAVOK

Säähavainnot ja -ennusteet yli 4000 lentoasemalta (METAR- ja TAF-raportit).

Käytössä olevat sääasemat on merkitty karttaan keltaisilla ja punaisilla pisteillä.

Aseta hiiri pisteen päälle nähdäksesi sääaseman nimen.

Klikkaa sitten nähdäksesi säähavainnot ja -ennusteet.

Kartan vaihtaminen: klikkaa mustalla rastilla varustettuja vihreitä pisteitä, niin voit zoomata sisään; viivalla varustettua vihreää pistettä, niin voit zoomata ulos tai vihreitä nuolia, niin pääset viereisille kartoille.


METAR-TAF: